Latest Weather Observations for Moree

IDN60801

Issued at 6:35 pm EDT Saturday 25 October 2014 (issued every 30 minutes, with the page automatically refreshed every 10 minutes)

About weather observations | Map of weather stations | Latest weather observations for NSW | Other Formats
Station Details ID: 053115 Name: MOREE AERO Lat: -29.49 Lon: 149.85 Height: 213.0 m
Data from the previous 72 hours. | See also: Recent months at Moree
Date/Time
EDT
Temp
°C
App
Temp
°C
Dew
Point
Rel
Hum
%
Delta-T
°C
Wind Press
QNH
hPa
Press
MSL
hPa
Rain
since 9 am
mm
Dir
 
Spd
km/h
Gust
km/h
Spd
kts
Gust
kts
25/06:30pm 35.9 29.6 -3.6 8 18.7 SSW 20 26 11 14 1013.2 - 0.0
25/06:00pm 35.9 29.9 -3.0 8 18.6 SSW 19 26 10 14 1013.0 1012.3 0.0
25/05:30pm 36.8 29.8 -3.3 8 19.2 SW 24 30 13 16 1012.8 - 0.0
25/05:00pm 37.1 30.0 -4.0 7 19.5 SSW 24 30 13 16 1013.0 - 0.0
25/04:30pm 36.8 32.0 -2.7 8 19.1 S 13 20 7 11 1013.2 - 0.0
25/04:00pm 37.8 31.8 -3.2 7 19.8 S 19 35 10 19 1013.4 - 0.0
25/03:30pm 37.2 33.2 -2.0 8 19.2 S 9 30 5 16 1013.6 - 0.0
25/03:00pm 37.0 32.5 -0.1 9 18.7 S 13 32 7 17 1014.1 1013.4 0.0
25/02:30pm 35.8 32.6 3.1 13 17.2 S 9 24 5 13 1014.7 - 0.0
25/02:00pm 36.1 30.8 3.1 12 17.4 SE 20 28 11 15 1015.2 - 0.0
25/01:30pm 34.7 32.5 3.2 14 16.5 S 4 15 2 8 1015.7 - 0.0
25/01:00pm 34.5 32.3 5.3 16 15.8 E 6 17 3 9 1016.1 - 0.0
25/12:30pm 33.2 31.7 4.9 17 15.1 N 2 11 1 6 1016.5 - 0.0
25/12:00pm 32.4 31.2 9.7 24 13.0 W 6 11 3 6 1017.2 1016.6 0.0
25/11:30am 31.7 29.7 8.5 23 13.0 N 9 17 5 9 1017.9 - 0.0
25/11:00am 30.7 27.7 9.3 26 12.1 NNE 15 24 8 13 1018.3 - 0.0
25/10:30am 29.1 25.9 10.1 30 10.8 N 17 24 9 13 1018.7 - 0.0
25/10:00am 28.2 24.4 9.9 32 10.3 N 20 28 11 15 1018.6 - 0.0
25/09:30am 26.8 23.2 10.5 36 9.2 N 20 30 11 16 1018.6 - 0.0
25/09:00am 26.0 22.2 11.3 39 8.4 N 22 30 12 16 1018.5 1017.8 0.0
25/08:30am 24.5 20.0 11.5 44 7.4 NNE 26 37 14 20 1018.4 - 0.0
25/08:00am 23.0 18.7 11.9 49 6.3 NNE 26 32 14 17 1018.2 - 0.0
25/07:30am 21.8 18.7 12.1 54 5.5 NNE 20 30 11 16 1018.0 - 0.0
25/07:00am 20.9 17.2 11.6 55 5.2 NNE 22 32 12 17 1017.5 - 0.0
25/06:30am 21.3 17.2 11.3 53 5.6 NNE 24 30 13 16 1016.9 - 0.0
25/06:00am 21.6 16.9 10.8 50 6.0 NNE 26 32 14 17 1016.5 1015.9 0.0
25/05:30am 21.9 17.9 10.3 47 6.4 NNE 22 30 12 16 1016.5 - 0.0
25/05:00am 21.9 17.5 10.3 47 6.4 NNE 24 33 13 18 1016.3 - 0.0
25/04:30am 22.1 18.4 10.3 47 6.5 NNE 20 28 11 15 1016.1 - 0.0
25/04:00am 22.2 18.1 10.0 46 6.7 NNE 22 30 12 16 1015.8 - 0.0
25/03:30am 22.9 17.9 9.5 42 7.3 NNE 26 32 14 17 1015.6 - 0.0
25/03:00am 23.8 18.7 9.1 39 8.0 NNE 26 33 14 18 1015.8 1015.1 0.0
25/02:30am 24.0 19.3 7.9 35 8.6 NE 22 28 12 15 1016.1 - 0.0
25/02:00am 24.0 20.4 6.8 33 9.0 ENE 15 19 8 10 1016.6 - 0.0
25/01:30am 24.0 19.8 5.9 31 9.3 NE 17 19 9 10 1016.8 - 0.0
25/01:00am 24.0 19.6 6.5 32 9.1 E 19 24 10 13 1017.1 - 0.0
25/12:30am 25.6 22.7 6.3 29 10.1 E 11 17 6 9 1017.2 - 0.0
25/12:00am 26.8 24.2 6.3 27 10.8 NW 9 17 5 9 1016.9 1016.3 0.0
 
Date/Time
EDT
Temp
°C
App
Temp
°C
Dew
Point
Rel
Hum
%
Delta-T
°C
Wind Press
QNH
hPa
Press
MSL
hPa
Rain
since 9 am
mm
Dir
 
Spd
km/h
Gust
km/h
Spd
kts
Gust
kts
24/11:30pm 27.9 23.2 5.2 23 11.8 N 19 24 10 13 1016.3 - 0.0
24/11:00pm 28.2 23.4 5.5 23 11.9 N 20 26 11 14 1016.2 - 0.0
24/10:30pm 28.3 23.7 5.4 23 12.0 N 19 26 10 14 1016.0 - 0.0
24/10:00pm 28.1 23.2 5.0 23 12.0 NNE 20 24 11 13 1015.7 - 0.0
24/09:30pm 28.6 23.2 4.6 21 12.4 NNE 22 30 12 16 1015.7 - 0.0
24/09:00pm 29.1 24.3 4.6 21 12.7 NNE 19 22 10 12 1015.5 1014.8 0.0
24/08:30pm 29.9 25.8 4.6 20 13.2 NNE 15 19 8 10 1015.3 - 0.0
24/08:00pm 30.6 26.9 4.6 19 13.6 NNE 13 15 7 8 1015.2 - 0.0
24/07:30pm 31.7 28.8 4.5 18 14.3 N 9 13 5 7 1014.9 - 0.0
24/07:00pm 32.8 29.5 4.8 17 14.9 N 11 15 6 8 1014.8 - 0.0
24/06:30pm 33.9 31.3 4.0 15 15.8 NNE 7 15 4 8 1014.7 - 0.0
24/06:00pm 33.9 31.3 4.0 15 15.8 N 7 20 4 11 1014.6 1013.9 0.0
24/05:30pm 34.3 31.8 4.9 16 15.8 N 7 17 4 9 1014.6 - 0.0
24/05:00pm 34.4 32.4 4.4 15 16.0 ENE 4 17 2 9 1014.7 - 0.0
24/04:30pm 34.4 32.1 4.7 15 15.9 N 6 24 3 13 1015.0 - 0.0
24/04:00pm 34.6 31.0 4.8 15 16.0 N 13 26 7 14 1015.5 - 0.0
24/03:30pm 34.7 31.7 4.3 15 16.2 N 9 20 5 11 1016.0 - 0.0
24/03:00pm 33.8 31.2 6.1 18 15.1 NNE 9 20 5 11 1016.6 1016.0 0.0
24/02:30pm 33.4 30.8 6.0 18 14.9 N 9 19 5 10 1016.9 - 0.0
24/02:00pm 32.7 30.4 5.5 18 14.6 NNW 7 22 4 12 1017.6 - 0.0
24/01:30pm 33.5 31.2 5.8 17 15.0 NNW 7 19 4 10 1018.3 - 0.0
24/01:00pm 32.6 30.2 6.9 20 14.1 N 9 28 5 15 1018.8 - 0.0
24/12:30pm 31.6 28.8 8.6 24 12.9 NNW 13 15 7 8 1019.2 - 0.0
24/12:00pm 31.0 28.8 9.2 26 12.3 N 11 17 6 9 1019.8 1019.1 0.0
24/11:30am 29.2 26.2 9.2 28 11.2 NNE 15 24 8 13 1020.2 - 0.0
24/11:00am 29.0 25.7 9.4 29 11.0 N 17 26 9 14 1020.5 - 0.0
24/10:30am 27.8 23.9 9.6 32 10.2 NE 20 26 11 14 1020.7 - 0.0
24/10:00am 26.6 22.5 10.0 35 9.3 NNE 22 30 12 16 1020.8 - 0.0
24/09:30am 25.2 20.0 10.1 38 8.4 NE 28 37 15 20 1020.8 - 0.0
24/09:00am 24.1 18.6 10.5 42 7.6 NE 30 37 16 20 1021.1 1020.5 0.0
24/08:30am 22.5 18.2 10.6 47 6.6 NE 24 33 13 18 1020.7 - 0.0
24/08:00am 21.0 16.5 10.2 50 5.9 ENE 24 30 13 16 1020.9 - 0.0
24/07:30am 20.2 16.7 10.3 53 5.4 ENE 19 26 10 14 1020.4 - 0.0
24/07:00am 19.0 16.3 10.3 57 4.7 ENE 15 19 8 10 1020.0 - 0.0
24/06:30am 17.2 14.8 9.9 62 3.9 ENE 13 17 7 9 1019.6 - 0.0
24/06:00am 17.1 14.6 9.7 61 3.9 ENE 13 19 7 10 1019.3 1018.6 0.0
24/05:30am 17.0 15.2 9.4 61 4.0 ENE 9 15 5 8 1019.1 - 0.0
24/05:00am 17.8 15.7 9.7 59 4.3 ENE 11 13 6 7 1018.6 - 0.0
24/04:30am 18.7 17.0 9.9 56 4.7 NNE 9 9 5 5 1018.4 - 0.0
24/04:00am 19.0 16.9 9.6 54 5.0 NNE 11 11 6 6 1018.3 - 0.0
24/03:30am 18.7 16.1 9.3 54 5.0 ENE 13 17 7 9 1018.4 - 0.0
24/03:00am 19.5 17.4 9.6 52 5.3 ENE 11 13 6 7 1018.7 1018.0 0.0
24/02:30am 20.3 18.2 9.7 50 5.7 NE 11 13 6 7 1018.7 - 0.0
24/02:00am 20.9 18.4 9.8 49 6.0 NE 13 15 7 8 1019.0 - 0.0
24/01:30am 21.6 18.7 9.8 47 6.4 NE 15 19 8 10 1019.5 - 0.0
24/01:00am 22.0 18.7 9.4 44 6.8 ENE 17 24 9 13 1019.7 - 0.0
24/12:30am 22.2 18.3 8.7 42 7.2 E 19 24 10 13 1019.9 - 0.0
24/12:00am 22.5 19.1 9.2 42 7.2 E 17 26 9 14 1019.9 1019.2 0.0
 
Date/Time
EDT
Temp
°C
App
Temp
°C
Dew
Point
Rel
Hum
%
Delta-T
°C
Wind Press
QNH
hPa
Press
MSL
hPa
Rain
since 9 am
mm
Dir
 
Spd
km/h
Gust
km/h
Spd
kts
Gust
kts
23/11:30pm 23.6 19.5 8.5 38 8.1 NE 20 28 11 15 1019.4 - 0.0
23/11:00pm 24.4 19.8 8.2 35 8.7 NE 22 32 12 17 1019.1 - 0.0
23/10:30pm 25.1 19.4 8.5 34 9.0 NE 28 35 15 19 1018.9 - 0.0
23/10:00pm 25.9 20.8 6.2 28 10.3 ENE 22 32 12 17 1018.7 - 0.0
23/09:30pm 26.4 23.6 5.3 26 10.9 E 9 11 5 6 1018.0 - 0.0
23/09:24pm 26.2 23.3 4.9 25 10.9 ESE 9 15 5 8 1017.9 - 0.0
23/09:02pm 24.8 23.8 5.5 29 9.9 CALM 0 0 0 0 1017.6 - 0.0
23/09:00pm 24.8 23.8 5.8 29 9.8 CALM 0 0 0 0 1017.6 1016.9 0.0
23/08:30pm 25.7 25.6 9.4 35 9.0 CALM 0 0 0 0 1017.1 - 0.0
23/08:00pm 27.5 27.1 8.3 29 10.5 CALM 0 0 0 0 1016.7 - 0.0
23/07:30pm 28.6 27.9 7.1 25 11.6 CALM 0 0 0 0 1016.5 - 0.0
23/07:00pm 30.8 28.8 6.3 21 13.2 SSW 6 7 3 4 1016.2 - 0.0
23/06:30pm 31.7 30.2 5.2 19 14.1 SSW 2 11 1 6 1016.1 - 0.0
23/06:00pm 32.0 27.9 4.4 17 14.5 SSW 15 22 8 12 1015.8 1015.1 0.0
23/05:30pm 32.4 29.0 3.9 16 14.9 S 11 20 6 11 1015.6 - 0.0
23/05:00pm 32.2 28.8 5.9 19 14.2 WSW 13 19 7 10 1015.6 - 0.0
23/04:30pm 32.5 29.0 5.5 18 14.5 W 13 22 7 12 1015.6 - 0.0
23/04:00pm 32.5 29.5 6.1 19 14.3 SSW 11 24 6 13 1015.9 - 0.0
23/03:30pm 32.1 29.4 5.6 19 14.2 SW 9 20 5 11 1016.3 - 0.0
23/03:00pm 31.6 30.5 5.3 19 14.0 CALM 0 4 0 2 1016.9 1016.3 0.0
23/02:30pm 30.9 28.2 7.4 23 12.9 W 11 20 6 11 1017.5 - 0.0
23/02:00pm 30.5 27.6 8.1 24 12.4 NNW 13 22 7 12 1018.1 - 0.0
23/01:30pm 29.1 27.5 8.2 27 11.5 NNW 6 19 3 10 1018.7 - 0.0
23/01:00pm 29.8 28.1 8.3 26 11.9 N 7 17 4 9 1019.3 - 0.0
23/12:30pm 27.6 24.9 9.0 31 10.3 N 13 26 7 14 1019.9 - 0.0
23/12:00pm 27.2 24.1 8.9 31 10.1 N 15 22 8 12 1020.4 1019.8 0.0
23/11:30am 26.9 23.5 9.2 32 9.8 N 17 22 9 12 1020.9 - 0.0
23/11:00am 25.3 20.9 9.0 35 8.9 N 22 32 12 17 1021.2 - 0.0
23/10:30am 24.5 19.9 9.6 39 8.2 N 24 33 13 18 1021.5 - 0.0
23/10:00am 22.7 17.7 9.4 42 7.2 N 26 33 14 18 1021.7 - 0.0
23/09:30am 21.6 15.9 9.8 47 6.4 N 30 41 16 22 1021.5 - 0.0
23/09:00am 20.1 14.4 9.7 51 5.6 N 30 37 16 20 1021.4 1020.8 0.0
23/08:30am 19.7 13.6 9.9 53 5.3 NNE 32 39 17 21 1021.4 - 0.0
23/08:00am 19.1 13.5 10.0 55 4.9 NNE 30 41 16 22 1021.3 - 0.0
23/07:30am 17.8 12.2 10.1 60 4.1 NNE 30 37 16 20 1021.2 - 0.0
23/07:00am 17.4 12.1 9.7 60 4.1 NE 28 33 15 18 1020.9 - 0.0
23/06:30am 17.3 12.6 9.3 59 4.2 NE 24 30 13 16 1021.0 - 0.0
23/06:00am 17.5 12.9 9.6 60 4.2 NE 24 30 13 16 1020.7 1020.1 0.0
23/05:30am 17.9 14.4 8.7 55 4.8 NNE 17 22 9 12 1020.9 - 0.0
23/05:00am 18.2 15.4 8.4 52 5.1 NNE 13 17 7 9 1021.1 - 0.0
23/04:30am 19.0 16.8 8.0 49 5.7 WNW 9 13 5 7 1021.3 - 0.0
23/04:00am 18.7 15.8 8.1 50 5.5 N 13 20 7 11 1020.8 - 0.0
23/03:30am 19.1 15.3 7.4 46 6.0 NNE 17 26 9 14 1020.4 - 0.0
23/03:00am 19.6 14.2 6.3 42 6.7 NNE 24 32 13 17 1019.5 1018.8 0.0
23/02:30am 19.9 14.8 5.9 40 7.0 NNE 22 28 12 15 1019.8 - 0.0
23/02:00am 20.2 15.7 6.1 39 7.1 NNE 19 26 10 14 1020.2 - 0.0
23/01:30am 20.3 15.8 6.2 40 7.1 NNE 19 24 10 13 1020.2 - 0.0
23/01:00am 19.3 14.5 7.2 45 6.2 NE 22 28 12 15 1020.3 - 0.0
23/12:30am 18.6 17.5 6.9 46 5.9 ENE 2 9 1 5 1019.9 - 0.0
23/12:00am 20.2 20.4 10.5 53 5.3 CALM 0 0 0 0 1020.0 1019.3 0.0
 
Date/Time
EDT
Temp
°C
App
Temp
°C
Dew
Point
Rel
Hum
%
Delta-T
°C
Wind Press
QNH
hPa
Press
MSL
hPa
Rain
since 9 am
mm
Dir
 
Spd
km/h
Gust
km/h
Spd
kts
Gust
kts
22/11:30pm 20.1 20.3 10.4 53 5.3 CALM 0 0 0 0 1020.1 - 0.0
22/11:00pm 19.7 20.0 11.0 57 4.8 CALM 0 0 0 0 1020.2 - 0.0
22/10:30pm 20.9 20.7 9.1 46 6.3 CALM 0 0 0 0 1020.2 - 0.0
22/10:00pm 23.1 21.6 9.3 41 7.5 N 7 11 4 6 1020.1 - 0.0
22/09:30pm 22.6 22.8 10.5 46 6.7 CALM 0 0 0 0 1020.0 - 0.0
22/09:00pm 22.8 22.7 9.4 42 7.3 CALM 0 0 0 0 1019.8 1019.1 0.0
22/08:30pm 24.3 24.3 9.8 40 8.0 CALM 0 0 0 0 1019.8 - 0.0
22/08:00pm 24.9 24.9 9.7 38 8.4 CALM 0 0 0 0 1019.5 - 0.0
22/07:30pm 26.8 26.5 8.5 31 10.0 CALM 0 0 0 0 1019.3 - 0.0
22/07:00pm 28.0 27.4 7.5 27 11.1 CALM 0 0 0 0 1019.2 - 0.0

Other Formats:

Comma delimited format used in spreadsheet applications
http://www.bom.gov.au/fwo/IDN60801/IDN60801.95527.axf

JavaScript Object Notation format (JSON) in row-major order
http://www.bom.gov.au/fwo/IDN60801/IDN60801.95527.json